Time;durP1;ratioP1;P1;durP2;ratioP2;P2;SDS_P1;SDS_P2;PMS_P1;PMS_P2;Temp;Humidity;BMP_temperature;BMP_pressure;BME280_temperature;BME280_humidity;BME280_pressure;Samples;Min_cycle;Max_cycle;Signal;HPM_P1;HPM_P2
2022/04/23 00:01:07;;;;;;;7.50;5.55;;;11.00;67.40;;;;;;2374934;56;21051;-76
2022/04/23 00:03:35;;;;;;;6.78;5.97;;;11.00;67.40;;;;;;2375230;56;21058;-77
2022/04/23 00:06:02;;;;;;;11.32;6.55;;;10.90;67.00;;;;;;2626829;52;21148;-77
2022/04/23 00:08:30;;;;;;;9.27;6.25;;;10.90;66.90;;;;;;2374488;56;21562;-76
2022/04/23 00:10:57;;;;;;;10.27;5.85;;;11.00;67.10;;;;;;2373637;56;21058;-76
2022/04/23 00:13:24;;;;;;;10.50;6.53;;;10.90;67.10;;;;;;2374613;56;21114;-79
2022/04/23 00:15:51;;;;;;;9.40;7.37;;;10.90;67.00;;;;;;2372809;56;21581;-76
2022/04/23 00:18:19;;;;;;;7.37;5.90;;;10.90;66.90;;;;;;2374308;56;21126;-78
2022/04/23 00:20:46;;;;;;;11.23;7.12;;;10.90;66.90;;;;;;2373329;56;21102;-76
2022/04/23 00:23:14;;;;;;;7.75;6.35;;;10.80;66.80;;;;;;2373566;56;21039;-77
2022/04/23 00:25:44;;;;;;;8.57;6.18;;;10.80;66.90;;;;;;2372882;56;21055;-76
2022/04/23 00:28:11;;;;;;;9.60;7.47;;;10.70;66.90;;;;;;2373986;56;21065;-76
2022/04/23 00:30:38;;;;;;;8.93;6.82;;;10.70;66.90;;;;;;2627086;52;21039;-76
2022/04/23 00:33:06;;;;;;;9.88;6.45;;;10.70;66.90;;;;;;2374047;56;21627;-78
2022/04/23 00:35:34;;;;;;;8.75;6.97;;;10.70;67.10;;;;;;2372874;56;21027;-76
2022/04/23 00:38:01;;;;;;;10.30;6.82;;;10.60;67.10;;;;;;2626864;52;21043;-76
2022/04/23 00:40:28;;;;;;;8.20;6.37;;;10.60;67.10;;;;;;2373540;56;21039;-77
2022/04/23 00:42:57;;;;;;;9.50;7.28;;;10.50;67.20;;;;;;2373797;56;21038;-76
2022/04/23 00:45:26;;;;;;;10.68;7.60;;;10.50;67.30;;;;;;2373126;56;21050;-77
2022/04/23 00:47:53;;;;;;;10.98;7.32;;;10.50;67.40;;;;;;2373695;56;21110;-76
2022/04/23 00:50:21;;;;;;;9.52;7.25;;;10.40;67.50;;;;;;2373515;56;21117;-76
2022/04/23 00:52:49;;;;;;;11.25;7.18;;;10.40;67.50;;;;;;2373786;56;21103;-76
2022/04/23 00:57:52;;;;;;;12.60;8.85;;;10.40;67.50;;;;;;2308938;57;28395;-76
2022/04/23 01:00:20;;;;;;;11.90;7.05;;;10.00;69.50;;;;;;2347575;57;21113;-78
2022/04/23 01:02:47;;;;;;;10.95;6.90;;;10.20;69.00;;;;;;2347154;57;21105;-76
2022/04/23 01:05:14;;;;;;;12.77;7.62;;;10.40;68.30;;;;;;2347036;57;21125;-76
2022/04/23 01:07:44;;;;;;;12.30;8.25;;;10.30;67.80;;;;;;2346802;57;21704;-76
2022/04/23 01:10:11;;;;;;;12.52;8.00;;;10.30;67.80;;;;;;2347217;57;21035;-75
2022/04/23 01:15:15;;;;;;;16.35;10.13;;;10.30;68.00;;;;;;2335051;57;27793;-74
2022/04/23 01:17:43;;;;;;;16.17;9.50;;;9.80;71.60;;;;;;2345046;57;21041;-75
2022/04/23 01:20:13;;;;;;;15.73;9.50;;;10.00;70.80;;;;;;2345417;57;21049;-74
2022/04/23 01:22:41;;;;;;;14.27;9.30;;;10.10;69.80;;;;;;2345745;57;21082;-76
2022/04/23 01:25:12;;;;;;;15.45;10.02;;;10.10;69.40;;;;;;2344830;57;21038;-76
2022/04/23 01:27:40;;;;;;;16.62;9.88;;;10.20;69.40;;;;;;2344917;57;21086;-77
2022/04/23 01:30:10;;;;;;;23.42;11.45;;;10.10;69.40;;;;;;2345760;57;21042;-77
2022/04/23 01:32:38;;;;;;;21.37;11.70;;;10.10;69.60;;;;;;2344897;57;21026;-77
2022/04/23 01:35:07;;;;;;;24.80;12.02;;;10.00;69.80;;;;;;2345874;57;21214;-76
2022/04/23 01:37:35;;;;;;;18.87;11.43;;;10.00;70.00;;;;;;2345669;57;21046;-76
2022/04/23 01:40:03;;;;;;;23.60;12.15;;;10.00;70.30;;;;;;2346179;57;21050;-77
2022/04/23 01:42:30;;;;;;;25.52;13.18;;;10.00;70.60;;;;;;2345010;57;21620;-76
2022/04/23 01:47:32;;;;;;;28.75;15.95;;;9.90;70.80;;;;;;2312198;57;38868;-75
2022/04/23 01:50:00;;;;;;;22.85;13.90;;;9.40;74.40;;;;;;2346745;57;21054;-74
2022/04/23 01:52:27;;;;;;;24.42;14.20;;;9.70;73.70;;;;;;2346768;57;21100;-74
2022/04/23 01:54:54;;;;;;;24.25;14.55;;;9.80;72.90;;;;;;2594441;53;21034;-77
2022/04/23 01:57:21;;;;;;;26.62;14.25;;;9.80;72.60;;;;;;2346597;57;21105;-76
2022/04/23 01:59:49;;;;;;;25.15;14.63;;;9.70;72.30;;;;;;2345292;57;21057;-78
2022/04/23 02:02:16;;;;;;;34.28;14.80;;;9.70;72.30;;;;;;2592719;52;21072;-78
2022/04/23 02:04:43;;;;;;;27.58;14.48;;;9.70;72.40;;;;;;2347367;57;21061;-77
2022/04/23 02:07:10;;;;;;;27.62;15.18;;;9.60;72.50;;;;;;2344907;57;21504;-76
2022/04/23 02:09:38;;;;;;;31.10;16.80;;;9.70;72.70;;;;;;2346892;57;21552;-76
2022/04/23 02:12:07;;;;;;;29.85;15.48;;;9.60;72.90;;;;;;2346556;57;21036;-76
2022/04/23 02:14:35;;;;;;;29.58;15.88;;;9.60;72.90;;;;;;2347423;57;21604;-77
2022/04/23 02:17:03;;;;;;;33.92;15.65;;;9.60;73.00;;;;;;2593812;52;21110;-76
2022/04/23 02:19:30;;;;;;;32.35;16.67;;;9.60;72.90;;;;;;2594395;52;21038;-77
2022/04/23 02:21:57;;;;;;;30.75;16.40;;;9.60;72.90;;;;;;2346903;57;21101;-76
2022/04/23 02:24:25;;;;;;;28.02;16.02;;;9.60;72.90;;;;;;2346709;57;21561;-77
2022/04/23 02:26:52;;;;;;;28.25;16.05;;;9.50;72.90;;;;;;2593523;52;21105;-76
2022/04/23 02:29:19;;;;;;;32.60;15.63;;;9.50;73.00;;;;;;2346805;57;21049;-76
2022/04/23 02:31:47;;;;;;;28.17;16.87;;;9.50;73.10;;;;;;2346934;57;21120;-77
2022/04/23 02:34:14;;;;;;;29.10;16.08;;;9.50;73.00;;;;;;2347751;57;21571;-78
2022/04/23 02:36:43;;;;;;;34.95;16.80;;;9.50;73.20;;;;;;2346386;57;21053;-77
2022/04/23 02:39:10;;;;;;;26.67;16.27;;;9.50;73.30;;;;;;2346964;57;21050;-77
2022/04/23 02:41:37;;;;;;;34.38;17.23;;;9.40;73.30;;;;;;2346505;57;21057;-77
2022/04/23 02:44:05;;;;;;;35.17;19.37;;;9.40;73.30;;;;;;2347289;57;21065;-76
2022/04/23 02:46:33;;;;;;;28.60;17.30;;;9.40;73.30;;;;;;2346916;57;21089;-76
2022/04/23 02:49:02;;;;;;;33.72;19.00;;;9.40;73.40;;;;;;2347243;57;21045;-77
2022/04/23 02:51:29;;;;;;;32.65;17.70;;;9.40;73.50;;;;;;2346588;57;21136;-76
2022/04/23 02:53:56;;;;;;;37.78;18.62;;;9.40;74.40;;;;;;2347499;57;21050;-77
2022/04/23 02:56:26;;;;;;;34.88;18.50;;;9.30;73.60;;;;;;2346190;57;21085;-75
2022/04/23 02:58:54;;;;;;;31.35;17.30;;;9.30;73.80;;;;;;2346554;57;21162;-75
2022/04/23 03:01:22;;;;;;;35.80;20.02;;;9.30;73.80;;;;;;2345053;57;21042;-75
2022/04/23 03:03:54;;;;;;;32.47;18.23;;;9.30;74.00;;;;;;2345623;57;21054;-75
2022/04/23 03:06:22;;;;;;;38.40;19.90;;;9.30;73.90;;;;;;2345796;57;21065;-76
2022/04/23 03:08:49;;;;;;;31.27;18.90;;;9.30;74.20;;;;;;2593367;53;21041;-76
2022/04/23 03:11:16;;;;;;;39.47;19.37;;;9.30;73.90;;;;;;2346113;57;21360;-75
2022/04/23 03:13:44;;;;;;;36.38;19.65;;;9.20;73.90;;;;;;2346248;57;21122;-75
2022/04/23 03:16:11;;;;;;;36.30;19.90;;;9.30;74.10;;;;;;2346383;57;21048;-75
2022/04/23 03:18:39;;;;;;;32.13;18.45;;;9.30;74.10;;;;;;2592860;53;21014;-75
2022/04/23 03:21:07;;;;;;;34.45;18.73;;;9.20;74.00;;;;;;2344836;57;21061;-75
2022/04/23 03:23:34;;;;;;;35.75;19.65;;;9.20;74.10;;;;;;2344096;57;21042;-76
2022/04/23 03:26:01;;;;;;;38.25;19.58;;;9.20;74.10;;;;;;2590982;53;21105;-74
2022/04/23 03:28:29;;;;;;;37.72;19.55;;;9.20;74.00;;;;;;2344357;57;21049;-76
2022/04/23 03:30:56;;;;;;;40.83;19.92;;;9.20;74.10;;;;;;2345768;57;21097;-75
2022/04/23 03:33:23;;;;;;;35.58;19.25;;;9.20;74.10;;;;;;2345863;57;21188;-76
2022/04/23 03:35:50;;;;;;;34.58;19.83;;;9.10;74.00;;;;;;2592956;53;22128;-74
2022/04/23 03:38:18;;;;;;;32.83;18.90;;;9.10;74.00;;;;;;2346058;57;21544;-75
2022/04/23 03:40:48;;;;;;;39.30;19.73;;;9.10;74.00;;;;;;2345238;57;21886;-76
2022/04/23 03:43:15;;;;;;;31.85;18.05;;;9.10;74.00;;;;;;2345340;57;21128;-76
2022/04/23 03:45:42;;;;;;;36.90;19.40;;;9.10;73.90;;;;;;2345914;57;21124;-74
2022/04/23 03:48:09;;;;;;;30.77;19.33;;;9.10;74.00;;;;;;2345080;57;21620;-75
2022/04/23 03:50:37;;;;;;;33.80;20.00;;;9.10;74.00;;;;;;2346103;57;21037;-74
2022/04/23 03:53:05;;;;;;;37.40;21.87;;;9.10;74.10;;;;;;2346239;57;21025;-75
2022/04/23 03:55:32;;;;;;;33.28;19.85;;;9.10;74.10;;;;;;2345969;57;21045;-75
2022/04/23 03:58:00;;;;;;;33.22;19.73;;;9.00;74.00;;;;;;2344626;57;21105;-74
2022/04/23 04:00:28;;;;;;;35.83;19.83;;;9.10;74.00;;;;;;2345973;57;21101;-74
2022/04/23 04:02:56;;;;;;;39.90;20.37;;;9.00;73.90;;;;;;2345994;57;21030;-76
2022/04/23 04:05:25;;;;;;;33.45;18.83;;;9.00;73.80;;;;;;2592119;53;21113;-75
2022/04/23 04:07:53;;;;;;;32.25;19.48;;;9.00;73.80;;;;;;2346446;57;21030;-74
2022/04/23 04:10:21;;;;;;;32.40;18.52;;;9.00;73.80;;;;;;2345872;57;21037;-75
2022/04/23 04:12:49;;;;;;;32.30;18.98;;;9.00;73.80;;;;;;2346479;57;21081;-74
2022/04/23 04:15:20;;;;;;;34.80;19.62;;;9.00;73.80;;;;;;2345737;57;21062;-75
2022/04/23 04:17:50;;;;;;;31.17;19.83;;;9.00;73.70;;;;;;2345980;57;22031;-75
2022/04/23 04:20:18;;;;;;;35.47;21.33;;;9.00;73.70;;;;;;2344787;57;21117;-77
2022/04/23 04:22:46;;;;;;;38.80;19.87;;;9.00;73.70;;;;;;2345977;57;21121;-77
2022/04/23 04:25:14;;;;;;;37.10;19.35;;;9.00;73.80;;;;;;2346269;57;21054;-77
2022/04/23 04:27:42;;;;;;;35.10;19.48;;;9.10;74.00;;;;;;2345612;57;21038;-76
2022/04/23 04:30:12;;;;;;;40.28;21.30;;;9.10;74.00;;;;;;2346275;57;21042;-75
2022/04/23 04:32:58;;;;;;;36.38;21.35;;;9.00;73.90;;;;;;2345954;57;21048;-74
2022/04/23 04:35:25;;;;;;;38.60;22.42;;;9.00;74.00;;;;;;2410509;55;21066;-76
2022/04/23 04:37:53;;;;;;;41.25;20.52;;;9.00;73.90;;;;;;2356787;54;21143;-74
2022/04/23 04:40:21;;;;;;;36.25;19.65;;;9.00;74.10;;;;;;2296258;54;21067;-76
2022/04/23 04:42:48;;;;;;;34.70;19.95;;;9.00;74.30;;;;;;2294130;58;21186;-76
2022/04/23 04:45:16;;;;;;;35.90;20.77;;;8.90;74.40;;;;;;2293270;58;21155;-75
2022/04/23 04:47:43;;;;;;;37.22;21.52;;;8.90;74.70;;;;;;2293929;58;21743;-75
2022/04/23 04:50:11;;;;;;;33.13;20.92;;;9.00;74.70;;;;;;2292913;58;21534;-76
2022/04/23 04:52:39;;;;;;;34.15;20.33;;;8.90;74.80;;;;;;2293128;58;21645;-75
2022/04/23 04:55:08;;;;;;;35.47;21.08;;;9.00;75.20;;;;;;2293147;58;21067;-74
2022/04/23 05:00:12;;;;;;;27.98;17.87;;;9.00;75.40;;;;;;2355786;57;22553;-77
2022/04/23 05:02:40;;;;;;;31.85;17.95;;;8.90;75.40;;;;;;2347202;57;21049;-76
2022/04/23 05:05:09;;;;;;;32.42;19.58;;;9.00;75.60;;;;;;2347006;57;21109;-77
2022/04/23 05:10:13;;;;;;;34.05;19.52;;;9.10;75.70;;;;;;2327423;57;22633;-77
2022/04/23 05:12:40;;;;;;;33.35;19.10;;;9.10;76.40;;;;;;2347137;57;21528;-77
2022/04/23 05:15:08;;;;;;;32.10;19.12;;;9.10;75.60;;;;;;2347104;57;21162;-75
2022/04/23 05:17:39;;;;;;;29.98;18.25;;;9.10;75.70;;;;;;2370718;56;21614;-77
2022/04/23 05:20:08;;;;;;;32.15;17.85;;;9.10;75.80;;;;;;2522982;52;21106;-77
2022/04/23 05:22:36;;;;;;;28.62;17.87;;;9.10;75.90;;;;;;2374678;56;21043;-76
2022/04/23 05:25:04;;;;;;;31.30;17.87;;;9.20;76.10;;;;;;2373749;56;21046;-76
2022/04/23 05:27:31;;;;;;;32.22;17.42;;;9.10;76.20;;;;;;2373392;56;21317;-77
2022/04/23 05:29:58;;;;;;;35.58;19.60;;;9.20;76.30;;;;;;2374286;56;21043;-77
2022/04/23 05:32:26;;;;;;;31.05;18.85;;;9.20;76.40;;;;;;2541845;52;21031;-77
2022/04/23 05:34:53;;;;;;;29.60;18.52;;;9.20;76.60;;;;;;2374841;56;21047;-74
2022/04/23 05:37:20;;;;;;;35.20;19.75;;;9.20;76.60;;;;;;2373811;56;21119;-76
2022/04/23 05:39:48;;;;;;;32.97;19.12;;;9.30;76.80;;;;;;2374273;56;21030;-77
2022/04/23 05:42:15;;;;;;;36.05;19.45;;;9.30;77.00;;;;;;2374764;56;21182;-77
2022/04/23 05:44:42;;;;;;;30.45;18.55;;;9.30;77.20;;;;;;2374822;56;21071;-77
2022/04/23 05:47:09;;;;;;;33.38;20.90;;;9.30;77.30;;;;;;2373260;56;21110;-76
2022/04/23 05:49:38;;;;;;;29.23;19.20;;;9.30;77.50;;;;;;2379382;52;21055;-76
2022/04/23 05:52:07;;;;;;;35.53;21.20;;;9.30;77.60;;;;;;2419498;52;21126;-77
2022/04/23 05:54:34;;;;;;;30.23;20.20;;;9.40;77.70;;;;;;2384530;52;21545;-75
2022/04/23 05:57:02;;;;;;;30.35;18.02;;;9.40;77.70;;;;;;2373827;56;21573;-76
2022/04/23 05:59:30;;;;;;;32.83;18.45;;;9.40;77.70;;;;;;2376902;52;21027;-77
2022/04/23 06:01:57;;;;;;;35.22;19.33;;;9.50;77.80;;;;;;2374723;56;21058;-77
2022/04/23 06:04:26;;;;;;;29.40;18.17;;;9.50;77.80;;;;;;2374578;56;21125;-76
2022/04/23 06:06:54;;;;;;;28.70;18.15;;;9.60;77.80;;;;;;2538592;52;21085;-77
2022/04/23 06:09:21;;;;;;;32.45;19.60;;;9.60;77.70;;;;;;2373574;56;21043;-76
2022/04/23 06:11:48;;;;;;;31.33;17.83;;;9.60;77.60;;;;;;2374864;56;21217;-75
2022/04/23 06:14:15;;;;;;;32.22;18.98;;;9.70;77.80;;;;;;2374589;56;21612;-77
2022/04/23 06:16:43;;;;;;;30.40;18.95;;;9.70;77.60;;;;;;2374240;56;21612;-77
2022/04/23 06:19:10;;;;;;;28.20;17.52;;;9.80;77.70;;;;;;2379002;52;21046;-76
2022/04/23 06:21:37;;;;;;;26.00;18.12;;;9.80;77.70;;;;;;2419033;52;21041;-76
2022/04/23 06:24:06;;;;;;;26.37;17.65;;;9.90;77.50;;;;;;2373260;56;21106;-74
2022/04/23 06:26:33;;;;;;;26.42;17.00;;;9.90;77.30;;;;;;2372650;56;21042;-76
2022/04/23 06:29:00;;;;;;;24.98;16.77;;;9.90;77.20;;;;;;2372901;56;21129;-77
2022/04/23 06:31:28;;;;;;;23.45;16.00;;;9.90;77.10;;;;;;2372957;56;21186;-77
2022/04/23 06:33:55;;;;;;;25.30;16.52;;;10.00;77.10;;;;;;2373943;56;21126;-75
2022/04/23 06:36:22;;;;;;;26.50;15.55;;;10.10;77.00;;;;;;2371761;56;21529;-75
2022/04/23 06:41:26;;;;;;;23.20;14.60;;;10.30;76.70;;;;;;2355882;57;22152;-73
2022/04/23 06:43:53;;;;;;;21.37;14.10;;;10.30;76.30;;;;;;2375458;56;21058;-76
2022/04/23 06:46:20;;;;;;;19.60;13.80;;;10.30;75.70;;;;;;2385124;56;21108;-74
2022/04/23 06:48:48;;;;;;;20.65;13.57;;;10.40;75.30;;;;;;2403059;56;21072;-74
2022/04/23 06:51:15;;;;;;;23.55;13.68;;;10.40;74.70;;;;;;2404074;56;21070;-73
2022/04/23 06:53:42;;;;;;;19.25;14.13;;;10.50;74.50;;;;;;2403980;56;21898;-73
2022/04/23 06:56:10;;;;;;;20.80;12.80;;;10.50;74.10;;;;;;2452660;52;21041;-73
2022/04/23 06:58:37;;;;;;;20.00;12.90;;;10.50;73.70;;;;;;2402679;56;21296;-74
2022/04/23 07:01:05;;;;;;;17.08;12.52;;;10.60;73.50;;;;;;2403922;56;21583;-74
2022/04/23 07:03:32;;;;;;;16.83;11.55;;;10.60;73.00;;;;;;2471679;52;21042;-75
2022/04/23 07:05:59;;;;;;;17.65;12.25;;;10.70;72.90;;;;;;2402749;56;21120;-74
2022/04/23 07:08:27;;;;;;;16.05;10.95;;;10.80;72.60;;;;;;2402792;56;21112;-75
2022/04/23 07:10:55;;;;;;;21.17;11.05;;;10.90;72.10;;;;;;2402672;56;21089;-76
2022/04/23 07:13:22;;;;;;;17.02;10.50;;;10.90;71.50;;;;;;2401990;56;21568;-75
2022/04/23 07:15:49;;;;;;;13.80;9.38;;;11.00;71.00;;;;;;2482043;52;21034;-75
2022/04/23 07:18:17;;;;;;;14.27;10.45;;;11.00;70.60;;;;;;2402796;56;21552;-75
2022/04/23 07:20:44;;;;;;;16.87;10.13;;;11.10;70.60;;;;;;2403738;56;21041;-75
2022/04/23 07:25:57;;;;;;;12.93;9.23;;;11.30;69.70;;;;;;2401778;52;21013;-74
2022/04/23 07:28:24;;;;;;;13.32;9.38;;;11.40;69.10;;;;;;2403560;56;21030;-75
2022/04/23 07:30:52;;;;;;;12.95;8.40;;;11.50;68.90;;;;;;2403151;56;21022;-74
2022/04/23 07:38:52;;;;;;;11.50;7.70;;;11.80;67.30;;;;;;2436360;52;21002;-75
2022/04/23 07:41:19;;;;;;;8.43;7.18;;;11.80;66.20;;;;;;2404302;56;21037;-76
2022/04/23 07:43:47;;;;;;;9.57;6.78;;;11.90;65.10;;;;;;2405298;56;21017;-75
2022/04/23 07:46:14;;;;;;;9.48;7.57;;;12.00;64.70;;;;;;2404258;56;21116;-74
2022/04/23 07:48:41;;;;;;;10.95;7.35;;;12.10;64.20;;;;;;2404994;56;21038;-75
2022/04/23 07:51:09;;;;;;;10.52;7.25;;;12.10;64.00;;;;;;2404661;56;21054;-74
2022/04/23 07:53:36;;;;;;;9.65;7.53;;;12.20;63.50;;;;;;2402768;56;21033;-74
2022/04/23 07:56:04;;;;;;;9.70;7.05;;;12.30;62.50;;;;;;2434846;52;21156;-75
2022/04/23 07:58:32;;;;;;;9.02;7.12;;;12.30;62.00;;;;;;2403875;56;21034;-75
2022/04/23 08:00:59;;;;;;;9.18;7.05;;;12.40;62.60;;;;;;2404037;56;21049;-75
2022/04/23 08:03:27;;;;;;;9.88;6.57;;;12.50;61.90;;;;;;2403852;56;21520;-75
2022/04/23 08:05:54;;;;;;;9.88;6.37;;;12.60;60.70;;;;;;2403632;56;21556;-75
2022/04/23 08:10:57;;;;;;;9.23;7.20;;;12.70;60.00;;;;;;2334050;57;28321;-75
2022/04/23 08:13:24;;;;;;;8.02;6.43;;;12.90;59.70;;;;;;2346336;53;21049;-76
2022/04/23 08:15:51;;;;;;;8.52;6.60;;;13.00;59.90;;;;;;2350609;56;22101;-76
2022/04/23 08:18:19;;;;;;;8.18;6.37;;;13.10;59.90;;;;;;2380829;52;21110;-76
2022/04/23 08:20:46;;;;;;;10.63;6.57;;;13.20;59.60;;;;;;2391494;52;21072;-76
2022/04/23 08:23:15;;;;;;;7.28;5.70;;;13.20;59.30;;;;;;2373856;56;21047;-75
2022/04/23 08:25:42;;;;;;;9.43;5.90;;;13.30;58.90;;;;;;2374500;56;21039;-75
2022/04/23 08:30:55;;;;;;;6.53;5.18;;;13.40;57.10;;;;;;2374607;52;21043;-74
2022/04/23 08:33:23;;;;;;;7.85;5.90;;;13.50;57.50;;;;;;2374839;56;21102;-75
2022/04/23 08:35:50;;;;;;;6.97;5.22;;;13.50;57.60;;;;;;2374097;56;21133;-75
2022/04/23 08:38:17;;;;;;;7.75;6.00;;;13.50;57.20;;;;;;2565991;52;21023;-75
2022/04/23 08:43:20;;;;;;;6.82;5.72;;;13.60;56.90;;;;;;2308055;57;28354;-73
2022/04/23 08:45:47;;;;;;;6.10;5.18;;;13.80;54.60;;;;;;2352668;54;21040;-76
2022/04/23 08:48:17;;;;;;;6.12;5.22;;;13.90;55.40;;;;;;2345606;57;21045;-76
2022/04/23 08:50:49;;;;;;;5.97;5.05;;;13.90;55.00;;;;;;2437913;53;21520;-76
2022/04/23 08:53:18;;;;;;;5.78;4.75;;;14.00;55.00;;;;;;2344836;57;21082;-77
2022/04/23 08:55:47;;;;;;;7.18;5.30;;;14.10;54.30;;;;;;2345218;57;21033;-76
2022/04/23 08:58:17;;;;;;;6.20;5.03;;;14.20;53.90;;;;;;2346011;57;21058;-76
2022/04/23 09:00:44;;;;;;;5.78;4.57;;;14.20;53.50;;;;;;2345965;53;21146;-75
2022/04/23 09:03:15;;;;;;;5.90;4.72;;;14.30;53.00;;;;;;2345892;57;21604;-76
2022/04/23 09:05:43;;;;;;;6.28;4.62;;;14.30;52.40;;;;;;2344828;57;21097;-76
2022/04/23 09:08:10;;;;;;;5.75;4.47;;;14.30;52.40;;;;;;2346038;57;21030;-76
2022/04/23 09:10:45;;;;;;;6.87;5.25;;;14.40;51.60;;;;;;2345533;57;21337;-76
2022/04/23 09:13:23;;;;;;;6.25;5.10;;;14.50;51.70;;;;;;2346042;57;21057;-75
2022/04/23 09:24:45;;;;;;;5.62;4.82;;;14.60;50.90;;;;;;2346166;53;20990;-74
2022/04/23 09:27:13;;;;;;;6.50;4.82;;;14.60;51.20;;;;;;2344222;57;21140;-74
2022/04/23 09:29:42;;;;;;;5.93;4.55;;;14.60;50.40;;;;;;2345796;57;22118;-77
2022/04/23 09:32:11;;;;;;;5.15;4.30;;;14.70;50.30;;;;;;2346349;57;21112;-77
2022/04/23 09:34:38;;;;;;;5.50;4.68;;;14.70;50.90;;;;;;2346244;57;21120;-77
2022/04/23 09:37:08;;;;;;;6.10;5.22;;;14.70;49.70;;;;;;2345857;57;21033;-76
2022/04/23 09:39:38;;;;;;;5.37;4.57;;;14.80;50.10;;;;;;2380633;53;21053;-76
2022/04/23 09:42:12;;;;;;;6.12;4.62;;;14.90;50.00;;;;;;2357485;53;21050;-76
2022/04/23 09:44:40;;;;;;;5.03;4.32;;;14.90;49.90;;;;;;2344528;57;21113;-76
2022/04/23 09:47:07;;;;;;;7.45;4.82;;;15.00;50.00;;;;;;2345695;57;21049;-76
2022/04/23 09:49:35;;;;;;;6.57;4.87;;;15.00;49.90;;;;;;2346083;57;21110;-77
2022/04/23 09:52:05;;;;;;;5.90;4.50;;;15.10;49.80;;;;;;2346443;57;21117;-77
2022/04/23 09:54:35;;;;;;;6.28;5.00;;;15.20;50.20;;;;;;2345526;57;21046;-77
2022/04/23 09:57:03;;;;;;;7.03;5.00;;;15.20;49.60;;;;;;2344897;57;21074;-76
2022/04/23 10:02:10;;;;;;;5.95;3.97;;;15.30;48.10;;;;;;2353471;57;22074;-74
2022/04/23 10:04:38;;;;;;;5.55;4.45;;;15.40;48.90;;;;;;2346810;57;21048;-76
2022/04/23 10:07:08;;;;;;;4.90;4.20;;;15.40;47.90;;;;;;2365005;56;21027;-76
2022/04/23 10:09:41;;;;;;;5.03;4.30;;;15.50;47.80;;;;;;2374657;56;21190;-75
2022/04/23 10:12:12;;;;;;;4.78;3.95;;;15.60;47.80;;;;;;2374334;56;21039;-76
2022/04/23 10:14:46;;;;;;;4.95;4.00;;;15.70;48.80;;;;;;2373905;56;21063;-76
2022/04/23 10:17:17;;;;;;;;;;;15.80;48.80;;;;;;2386386;52;21031;-77
2022/04/23 10:19:45;;;;;;;6.35;4.40;;;15.90;49.50;;;;;;2374341;56;20136;-77
2022/04/23 10:22:21;;;;;;;5.53;4.12;;;16.00;48.30;;;;;;2374029;56;21035;-77
2022/04/23 10:25:10;;;;;;;7.03;4.55;;;16.10;48.00;;;;;;2374373;56;21043;-77
2022/04/23 10:27:39;;;;;;;9.10;4.50;;;16.20;47.50;;;;;;2384751;52;21111;-78
2022/04/23 10:30:10;;;;;;;6.50;4.28;;;16.30;46.70;;;;;;2389321;52;21051;-78
2022/04/23 10:32:39;;;;;;;5.80;4.60;;;16.50;47.40;;;;;;2429486;52;21099;-78
2022/04/23 10:35:33;;;;;;;5.93;4.75;;;16.60;47.80;;;;;;2516864;52;67619;-84
2022/04/23 10:38:19;;;;;;;8.65;4.90;;;16.70;47.20;;;;;;2542786;54;21098;-83
2022/04/23 10:40:50;;;;;;;6.07;5.00;;;16.80;47.50;;;;;;2542573;54;21681;-83
2022/04/23 10:43:19;;;;;;;7.20;4.57;;;16.80;47.50;;;;;;2542141;54;21070;-83
2022/04/23 10:45:48;;;;;;;5.93;4.95;;;16.80;46.50;;;;;;2541170;54;21103;-84
2022/04/23 10:48:26;;;;;;;5.32;4.57;;;16.80;46.20;;;;;;2541846;54;21063;-84
2022/04/23 10:51:05;;;;;;;6.47;4.93;;;16.80;46.30;;;;;;2540703;54;21133;-84
2022/04/23 10:53:55;;;;;;;5.22;4.65;;;16.70;45.80;;;;;;2540965;54;21035;-83
2022/04/23 10:56:23;;;;;;;4.70;3.80;;;16.70;45.70;;;;;;2540511;54;21074;-84
2022/04/23 10:58:52;;;;;;;5.62;4.50;;;16.60;46.00;;;;;;2541553;54;21083;-84
2022/04/23 11:01:23;;;;;;;4.90;4.40;;;16.60;45.70;;;;;;2540061;54;21130;-83
2022/04/23 11:04:19;;;;;;;5.70;4.65;;;16.60;45.80;;;;;;2540047;54;21621;-83
2022/04/23 11:12:54;;;;;;;5.68;4.22;;;16.50;44.20;;;;;;2300888;58;21081;-76
2022/04/23 11:15:21;;;;;;;5.22;4.40;;;16.50;44.70;;;;;;2535038;54;21059;-75
2022/04/23 11:17:55;;;;;;;4.93;4.25;;;16.50;44.00;;;;;;2299673;58;21137;-74
2022/04/23 11:20:34;;;;;;;5.05;4.28;;;16.50;44.00;;;;;;2299556;58;21321;-74
2022/04/23 11:25:38;;;;;;;6.45;4.40;;;16.70;44.60;;;;;;2352847;57;22086;-75
2022/04/23 11:28:21;;;;;;;5.57;4.62;;;16.80;44.00;;;;;;2588633;53;21101;-74
2022/04/23 11:30:50;;;;;;;6.25;4.50;;;17.00;43.90;;;;;;2587820;53;21577;-75
2022/04/23 11:38:41;;;;;;;9.38;7.72;;;17.70;47.80;;;;;;2268646;59;22656;-74
2022/04/23 11:41:08;;;;;;;8.95;7.43;;;17.60;48.30;;;;;;2287605;58;21058;-74
2022/04/23 11:43:37;;;;;;;11.10;8.27;;;17.60;48.00;;;;;;2295827;57;21064;-75
2022/04/23 11:48:44;;;;;;;11.45;8.68;;;17.60;47.90;;;;;;2532452;54;22156;-73
2022/04/23 11:51:12;;;;;;;13.05;9.25;;;17.60;49.30;;;;;;2313438;58;21656;-74
2022/04/23 11:53:52;;;;;;;10.90;8.40;;;17.70;49.20;;;;;;2553255;54;22208;-73
2022/04/23 11:59:09;;;;;;;11.02;8.60;;;17.70;48.20;;;;;;2265647;59;22175;-77
2022/04/23 12:01:38;;;;;;;11.15;8.55;;;17.80;48.70;;;;;;2283673;58;21083;-74
2022/04/23 12:04:06;;;;;;;11.75;8.45;;;17.90;49.10;;;;;;2286537;58;21134;-75
2022/04/23 12:06:44;;;;;;;12.25;9.27;;;17.90;48.90;;;;;;2297991;58;21139;-75
2022/04/23 12:11:59;;;;;;;11.40;8.52;;;18.00;49.20;;;;;;2352585;57;22078;-74
2022/04/23 12:14:26;;;;;;;10.70;8.63;;;18.10;48.70;;;;;;2340752;57;21647;-74
2022/04/23 12:17:06;;;;;;;12.60;9.52;;;18.10;48.30;;;;;;2358245;56;21110;-75
2022/04/23 12:19:33;;;;;;;12.00;8.43;;;18.00;48.00;;;;;;2367681;56;21118;-74
2022/04/23 12:22:01;;;;;;;10.82;8.82;;;18.00;48.40;;;;;;2371764;56;21055;-74
2022/04/23 12:24:32;;;;;;;12.60;8.75;;;18.00;48.10;;;;;;2373296;56;21627;-75
2022/04/23 12:27:03;;;;;;;12.65;8.38;;;18.00;48.50;;;;;;2371774;56;21058;-74
2022/04/23 12:40:46;;;;;;;9.82;7.75;;;18.20;48.50;;;;;;2343390;57;21515;-75
2022/04/23 12:43:28;;;;;;;12.60;7.87;;;18.30;49.10;;;;;;2338963;57;21390;-75
2022/04/23 12:46:17;;;;;;;11.75;8.75;;;18.30;48.70;;;;;;2337416;57;21065;-75
2022/04/23 12:51:51;;;;;;;12.48;8.80;;;18.40;48.00;;;;;;2350744;57;22603;-76
2022/04/23 12:54:21;;;;;;;11.55;8.15;;;18.40;46.80;;;;;;2574327;53;21139;-75
2022/04/23 12:56:49;;;;;;;11.15;7.90;;;18.50;47.20;;;;;;2318451;58;21127;-76
2022/04/23 12:59:16;;;;;;;10.68;7.75;;;18.50;47.50;;;;;;2318848;58;21059;-76
2022/04/23 13:01:43;;;;;;;16.83;8.63;;;18.50;48.00;;;;;;2318082;57;21135;-77
2022/04/23 13:04:12;;;;;;;10.48;8.02;;;18.60;47.10;;;;;;2319641;57;21048;-77
2022/04/23 13:09:26;;;;;;;11.45;8.48;;;18.60;46.60;;;;;;2317114;58;21080;-76
2022/04/23 13:11:53;;;;;;;11.05;9.35;;;18.50;46.50;;;;;;2558710;53;21644;-80
2022/04/23 13:14:21;;;;;;;13.35;8.60;;;18.40;46.00;;;;;;2559347;53;21080;-79
2022/04/23 13:16:49;;;;;;;12.63;8.95;;;18.30;47.00;;;;;;2558002;53;21071;-81
2022/04/23 13:19:16;;;;;;;12.90;8.63;;;18.30;47.30;;;;;;2556574;53;21126;-79
2022/04/23 13:21:43;;;;;;;12.00;9.18;;;18.40;47.70;;;;;;2315013;58;21139;-79
2022/04/23 13:24:11;;;;;;;13.95;9.95;;;18.30;46.50;;;;;;2315053;58;21179;-80
2022/04/23 13:26:38;;;;;;;13.50;9.50;;;18.40;46.40;;;;;;2557868;53;21084;-81
2022/04/23 13:29:06;;;;;;;12.02;9.25;;;18.40;46.50;;;;;;2558257;53;21592;-79
2022/04/23 13:31:35;;;;;;;11.23;9.15;;;18.40;47.30;;;;;;2318867;57;21572;-82
2022/04/23 13:34:03;;;;;;;12.43;9.52;;;18.50;46.70;;;;;;2559731;53;21067;-81
2022/04/23 13:36:30;;;;;;;11.63;9.13;;;18.40;45.60;;;;;;2558487;53;21064;-78
2022/04/23 13:38:57;;;;;;;15.35;10.18;;;18.50;47.40;;;;;;2318106;57;21138;-78
2022/04/23 13:44:02;;;;;;;12.25;9.35;;;18.50;46.20;;;;;;2351530;57;22050;-76
2022/04/23 13:46:32;;;;;;;12.07;8.93;;;18.50;46.60;;;;;;2636725;52;21018;-75
2022/04/23 13:49:00;;;;;;;14.48;9.48;;;18.50;47.00;;;;;;2399773;56;21073;-76
2022/04/23 13:51:27;;;;;;;13.65;8.95;;;18.60;47.10;;;;;;2392499;56;21208;-78
2022/04/23 13:53:54;;;;;;;19.90;9.68;;;18.60;47.20;;;;;;2394113;56;21091;-76
2022/04/23 13:58:57;;;;;;;11.83;10.20;;;18.70;47.30;;;;;;2326587;57;27958;-74
2022/04/23 14:01:24;;;;;;;14.52;9.98;;;18.90;45.80;;;;;;2364087;56;21058;-76
2022/04/23 14:12:14;;;;;;;14.63;9.65;;;19.00;45.80;;;;;;2342016;57;21053;-75
2022/04/23 14:14:42;;;;;;;10.02;7.90;;;19.00;46.60;;;;;;2342403;57;21057;-75
2022/04/23 14:17:09;;;;;;;11.68;9.23;;;19.00;46.40;;;;;;2342992;57;21066;-76
2022/04/23 14:19:37;;;;;;;10.48;8.68;;;19.00;46.60;;;;;;2588728;53;21691;-77
2022/04/23 14:22:05;;;;;;;10.85;9.20;;;19.00;46.00;;;;;;2341391;57;21582;-76